sensor_id;sensor_type;location;lat;lon;timestamp;pressure;altitude;pressure_sealevel;temperature;humidity
75290;BME280;63883;48.996;20.804;2023-10-31T00:01:48;95868.78;;;9.99;100.00
75290;BME280;63883;48.996;20.804;2023-10-31T00:04:14;95862.97;;;10.18;100.00
75290;BME280;63883;48.996;20.804;2023-10-31T00:06:40;95862.75;;;10.46;100.00
75290;BME280;63883;48.996;20.804;2023-10-31T00:09:06;95850.94;;;10.87;100.00
75290;BME280;63883;48.996;20.804;2023-10-31T00:11:32;95844.31;;;11.04;100.00
75290;BME280;63883;48.996;20.804;2023-10-31T00:13:57;95851.09;;;11.45;100.00
75290;BME280;63883;48.996;20.804;2023-10-31T00:16:23;95843.00;;;11.74;100.00
75290;BME280;63883;48.996;20.804;2023-10-31T00:18:49;95829.09;;;12.00;100.00
75290;BME280;63883;48.996;20.804;2023-10-31T00:21:15;95833.94;;;12.06;100.00
75290;BME280;63883;48.996;20.804;2023-10-31T00:23:47;95833.25;;;12.03;100.00
75290;BME280;63883;48.996;20.804;2023-10-31T00:26:13;95834.97;;;12.21;100.00
75290;BME280;63883;48.996;20.804;2023-10-31T00:28:39;95836.66;;;12.39;97.51
75290;BME280;63883;48.996;20.804;2023-10-31T00:31:05;95844.81;;;12.47;98.30
75290;BME280;63883;48.996;20.804;2023-10-31T00:33:34;95845.31;;;12.37;98.83
75290;BME280;63883;48.996;20.804;2023-10-31T00:36:00;95834.41;;;12.15;100.00
75290;BME280;63883;48.996;20.804;2023-10-31T00:38:26;95833.94;;;11.88;100.00
75290;BME280;63883;48.996;20.804;2023-10-31T00:40:52;95834.53;;;11.74;100.00
75290;BME280;63883;48.996;20.804;2023-10-31T00:43:17;95834.66;;;11.51;100.00
75290;BME280;63883;48.996;20.804;2023-10-31T00:45:43;95836.59;;;11.25;100.00
75290;BME280;63883;48.996;20.804;2023-10-31T00:48:08;95830.22;;;11.15;100.00
75290;BME280;63883;48.996;20.804;2023-10-31T00:50:34;95825.03;;;10.96;100.00
75290;BME280;63883;48.996;20.804;2023-10-31T00:53:00;95814.50;;;10.84;100.00
75290;BME280;63883;48.996;20.804;2023-10-31T00:55:25;95818.44;;;10.71;100.00
75290;BME280;63883;48.996;20.804;2023-10-31T00:57:52;95823.97;;;10.60;100.00
75290;BME280;63883;48.996;20.804;2023-10-31T01:00:18;95816.75;;;10.49;100.00
75290;BME280;63883;48.996;20.804;2023-10-31T01:02:43;95819.69;;;10.39;100.00
75290;BME280;63883;48.996;20.804;2023-10-31T01:05:11;95817.44;;;10.31;100.00
75290;BME280;63883;48.996;20.804;2023-10-31T01:07:36;95811.00;;;10.23;100.00
75290;BME280;63883;48.996;20.804;2023-10-31T01:10:03;95806.09;;;10.16;100.00
75290;BME280;63883;48.996;20.804;2023-10-31T01:12:29;95797.94;;;10.08;100.00
75290;BME280;63883;48.996;20.804;2023-10-31T01:14:56;95794.41;;;9.89;100.00
75290;BME280;63883;48.996;20.804;2023-10-31T01:17:22;95800.44;;;9.87;100.00
75290;BME280;63883;48.996;20.804;2023-10-31T01:19:48;95787.22;;;9.77;100.00
75290;BME280;63883;48.996;20.804;2023-10-31T01:22:14;95790.09;;;9.68;100.00
75290;BME280;63883;48.996;20.804;2023-10-31T01:24:40;95789.50;;;9.61;100.00
75290;BME280;63883;48.996;20.804;2023-10-31T01:27:05;95777.91;;;9.53;100.00
75290;BME280;63883;48.996;20.804;2023-10-31T01:29:31;95782.97;;;9.54;100.00
75290;BME280;63883;48.996;20.804;2023-10-31T01:31:56;95776.44;;;9.47;100.00
75290;BME280;63883;48.996;20.804;2023-10-31T01:34:22;95771.38;;;9.46;100.00
75290;BME280;63883;48.996;20.804;2023-10-31T01:36:48;95763.97;;;9.39;100.00
75290;BME280;63883;48.996;20.804;2023-10-31T01:39:14;95762.22;;;9.42;100.00
75290;BME280;63883;48.996;20.804;2023-10-31T01:41:42;95758.34;;;9.55;100.00
75290;BME280;63883;48.996;20.804;2023-10-31T01:44:09;95755.47;;;9.64;100.00
75290;BME280;63883;48.996;20.804;2023-10-31T01:46:35;95758.38;;;9.76;100.00
75290;BME280;63883;48.996;20.804;2023-10-31T01:49:01;95751.53;;;9.78;100.00
75290;BME280;63883;48.996;20.804;2023-10-31T01:51:27;95756.69;;;9.99;100.00
75290;BME280;63883;48.996;20.804;2023-10-31T01:53:54;95761.03;;;10.18;100.00
75290;BME280;63883;48.996;20.804;2023-10-31T01:56:21;95760.25;;;10.38;100.00
75290;BME280;63883;48.996;20.804;2023-10-31T01:58:48;95749.31;;;10.36;100.00
75290;BME280;63883;48.996;20.804;2023-10-31T02:01:14;95735.47;;;10.42;100.00
75290;BME280;63883;48.996;20.804;2023-10-31T02:03:40;95733.81;;;10.61;100.00
75290;BME280;63883;48.996;20.804;2023-10-31T02:06:06;95733.25;;;10.75;100.00
75290;BME280;63883;48.996;20.804;2023-10-31T02:08:32;95718.19;;;10.89;100.00
75290;BME280;63883;48.996;20.804;2023-10-31T02:10:57;95707.03;;;10.91;100.00
75290;BME280;63883;48.996;20.804;2023-10-31T02:13:23;95712.66;;;11.00;100.00
75290;BME280;63883;48.996;20.804;2023-10-31T02:15:49;95703.00;;;11.25;100.00
75290;BME280;63883;48.996;20.804;2023-10-31T02:18:15;95716.63;;;11.25;100.00
75290;BME280;63883;48.996;20.804;2023-10-31T02:20:41;95703.50;;;11.14;100.00
75290;BME280;63883;48.996;20.804;2023-10-31T02:23:06;95694.56;;;11.04;100.00
75290;BME280;63883;48.996;20.804;2023-10-31T02:25:32;95688.56;;;10.86;100.00
75290;BME280;63883;48.996;20.804;2023-10-31T02:27:58;95696.91;;;10.70;100.00
75290;BME280;63883;48.996;20.804;2023-10-31T02:30:24;95697.50;;;10.56;100.00
75290;BME280;63883;48.996;20.804;2023-10-31T02:32:50;95692.75;;;10.47;100.00
75290;BME280;63883;48.996;20.804;2023-10-31T02:35:17;95672.94;;;10.33;100.00
75290;BME280;63883;48.996;20.804;2023-10-31T02:37:44;95684.75;;;10.36;100.00
75290;BME280;63883;48.996;20.804;2023-10-31T02:40:10;95664.84;;;10.24;100.00
75290;BME280;63883;48.996;20.804;2023-10-31T02:42:36;95670.91;;;10.41;100.00
75290;BME280;63883;48.996;20.804;2023-10-31T02:45:02;95668.53;;;10.77;100.00
75290;BME280;63883;48.996;20.804;2023-10-31T02:47:29;95657.13;;;11.05;100.00
75290;BME280;63883;48.996;20.804;2023-10-31T02:49:54;95643.13;;;11.51;100.00
75290;BME280;63883;48.996;20.804;2023-10-31T02:52:20;95633.19;;;11.99;96.54
75290;BME280;63883;48.996;20.804;2023-10-31T02:54:46;95625.31;;;12.38;92.30
75290;BME280;63883;48.996;20.804;2023-10-31T02:57:12;95618.88;;;12.81;88.77
75290;BME280;63883;48.996;20.804;2023-10-31T02:59:37;95623.19;;;12.97;87.72
75290;BME280;63883;48.996;20.804;2023-10-31T03:02:03;95619.81;;;13.12;85.72
75290;BME280;63883;48.996;20.804;2023-10-31T03:04:29;95623.31;;;13.26;84.49
75290;BME280;63883;48.996;20.804;2023-10-31T03:06:55;95633.41;;;13.29;84.22
75290;BME280;63883;48.996;20.804;2023-10-31T03:09:20;95624.66;;;13.34;82.79
75290;BME280;63883;48.996;20.804;2023-10-31T03:11:46;95625.66;;;13.31;83.63
75290;BME280;63883;48.996;20.804;2023-10-31T03:14:11;95622.28;;;13.46;80.77
75290;BME280;63883;48.996;20.804;2023-10-31T03:16:37;95630.13;;;13.43;81.50
75290;BME280;63883;48.996;20.804;2023-10-31T03:19:04;95639.38;;;13.46;80.93
75290;BME280;63883;48.996;20.804;2023-10-31T03:21:30;95650.69;;;13.42;81.19
75290;BME280;63883;48.996;20.804;2023-10-31T03:23:57;95646.22;;;13.45;80.83
75290;BME280;63883;48.996;20.804;2023-10-31T03:26:23;95640.22;;;13.46;80.52
75290;BME280;63883;48.996;20.804;2023-10-31T03:28:48;95635.00;;;13.32;81.56
75290;BME280;63883;48.996;20.804;2023-10-31T03:31:14;95631.84;;;13.27;81.26
75290;BME280;63883;48.996;20.804;2023-10-31T03:33:41;95619.28;;;13.22;82.60
75290;BME280;63883;48.996;20.804;2023-10-31T03:36:08;95624.22;;;13.25;80.92
75290;BME280;63883;48.996;20.804;2023-10-31T03:38:34;95627.88;;;13.21;81.51
75290;BME280;63883;48.996;20.804;2023-10-31T03:41:01;95618.94;;;13.13;82.82
75290;BME280;63883;48.996;20.804;2023-10-31T03:43:27;95612.63;;;13.03;82.86
75290;BME280;63883;48.996;20.804;2023-10-31T03:45:52;95615.41;;;12.98;84.52
75290;BME280;63883;48.996;20.804;2023-10-31T03:48:18;95609.34;;;12.68;87.70
75290;BME280;63883;48.996;20.804;2023-10-31T03:50:44;95606.88;;;12.49;90.08
75290;BME280;63883;48.996;20.804;2023-10-31T03:53:10;95599.47;;;12.10;92.89
75290;BME280;63883;48.996;20.804;2023-10-31T03:55:36;95594.78;;;11.84;95.46
75290;BME280;63883;48.996;20.804;2023-10-31T03:58:01;95595.69;;;11.64;97.79
75290;BME280;63883;48.996;20.804;2023-10-31T04:00:27;95583.66;;;11.49;99.13
75290;BME280;63883;48.996;20.804;2023-10-31T04:02:53;95571.41;;;11.38;99.67
75290;BME280;63883;48.996;20.804;2023-10-31T04:05:18;95568.50;;;11.27;100.00
75290;BME280;63883;48.996;20.804;2023-10-31T04:07:47;95564.09;;;11.12;100.00
75290;BME280;63883;48.996;20.804;2023-10-31T04:10:13;95561.16;;;11.02;100.00
75290;BME280;63883;48.996;20.804;2023-10-31T04:12:38;95557.91;;;10.99;100.00
75290;BME280;63883;48.996;20.804;2023-10-31T04:15:05;95545.69;;;10.86;100.00
75290;BME280;63883;48.996;20.804;2023-10-31T04:17:31;95543.63;;;10.76;100.00
75290;BME280;63883;48.996;20.804;2023-10-31T04:19:56;95547.91;;;10.75;100.00
75290;BME280;63883;48.996;20.804;2023-10-31T04:22:22;95552.94;;;10.77;100.00
75290;BME280;63883;48.996;20.804;2023-10-31T04:24:48;95554.31;;;10.84;100.00
75290;BME280;63883;48.996;20.804;2023-10-31T04:27:13;95552.16;;;11.12;98.40
75290;BME280;63883;48.996;20.804;2023-10-31T04:29:39;95550.38;;;11.67;91.29
75290;BME280;63883;48.996;20.804;2023-10-31T04:32:05;95548.75;;;12.35;85.83
75290;BME280;63883;48.996;20.804;2023-10-31T04:34:31;95552.72;;;12.74;82.49
75290;BME280;63883;48.996;20.804;2023-10-31T04:36:57;95549.88;;;12.96;80.43
75290;BME280;63883;48.996;20.804;2023-10-31T04:39:23;95554.72;;;13.00;80.15
75290;BME280;63883;48.996;20.804;2023-10-31T04:41:49;95558.53;;;13.09;79.38
75290;BME280;63883;48.996;20.804;2023-10-31T04:44:14;95560.03;;;13.13;79.34
75290;BME280;63883;48.996;20.804;2023-10-31T04:46:42;95575.25;;;13.16;78.55
75290;BME280;63883;48.996;20.804;2023-10-31T04:49:08;95566.88;;;13.12;78.56
75290;BME280;63883;48.996;20.804;2023-10-31T04:51:37;95573.81;;;13.10;78.92
75290;BME280;63883;48.996;20.804;2023-10-31T04:54:03;95588.13;;;13.14;78.51
75290;BME280;63883;48.996;20.804;2023-10-31T04:56:29;95594.16;;;13.13;78.00
75290;BME280;63883;48.996;20.804;2023-10-31T04:58:56;95596.75;;;13.12;78.12
75290;BME280;63883;48.996;20.804;2023-10-31T05:01:21;95583.31;;;13.08;77.73
75290;BME280;63883;48.996;20.804;2023-10-31T05:03:47;95591.91;;;13.07;78.20
75290;BME280;63883;48.996;20.804;2023-10-31T05:06:13;95581.56;;;13.09;78.30
75290;BME280;63883;48.996;20.804;2023-10-31T05:08:38;95569.75;;;13.06;78.08
75290;BME280;63883;48.996;20.804;2023-10-31T05:11:04;95563.72;;;13.07;78.02
75290;BME280;63883;48.996;20.804;2023-10-31T05:13:30;95554.06;;;13.12;77.13
75290;BME280;63883;48.996;20.804;2023-10-31T05:15:55;95565.22;;;13.11;77.03
75290;BME280;63883;48.996;20.804;2023-10-31T05:18:21;95555.78;;;13.12;77.03
75290;BME280;63883;48.996;20.804;2023-10-31T05:20:47;95557.47;;;13.13;76.55
75290;BME280;63883;48.996;20.804;2023-10-31T05:23:13;95558.72;;;13.21;75.31
75290;BME280;63883;48.996;20.804;2023-10-31T05:25:39;95562.38;;;13.17;75.96
75290;BME280;63883;48.996;20.804;2023-10-31T05:28:05;95546.50;;;13.26;73.94
75290;BME280;63883;48.996;20.804;2023-10-31T05:30:30;95560.69;;;13.48;70.81
75290;BME280;63883;48.996;20.804;2023-10-31T05:32:56;95575.97;;;13.65;70.46
75290;BME280;63883;48.996;20.804;2023-10-31T05:35:22;95580.09;;;13.67;71.17
75290;BME280;63883;48.996;20.804;2023-10-31T05:37:48;95568.53;;;13.60;71.61
75290;BME280;63883;48.996;20.804;2023-10-31T05:40:14;95567.72;;;13.60;71.71
75290;BME280;63883;48.996;20.804;2023-10-31T05:42:40;95563.41;;;13.60;70.97
75290;BME280;63883;48.996;20.804;2023-10-31T05:45:06;95580.44;;;13.61;71.48
75290;BME280;63883;48.996;20.804;2023-10-31T05:47:32;95573.81;;;13.57;71.51
75290;BME280;63883;48.996;20.804;2023-10-31T05:50:00;95586.47;;;13.60;71.36
75290;BME280;63883;48.996;20.804;2023-10-31T05:52:29;95576.66;;;13.53;71.70
75290;BME280;63883;48.996;20.804;2023-10-31T05:54:55;95584.41;;;13.67;70.12
75290;BME280;63883;48.996;20.804;2023-10-31T05:57:21;95586.13;;;13.66;71.36
75290;BME280;63883;48.996;20.804;2023-10-31T05:59:47;95588.22;;;13.60;72.18
75290;BME280;63883;48.996;20.804;2023-10-31T06:02:13;95581.59;;;13.56;72.71
75290;BME280;63883;48.996;20.804;2023-10-31T06:04:39;95570.63;;;13.54;72.72
75290;BME280;63883;48.996;20.804;2023-10-31T06:07:06;95565.50;;;13.54;71.99
75290;BME280;63883;48.996;20.804;2023-10-31T06:09:31;95567.88;;;13.57;70.70
75290;BME280;63883;48.996;20.804;2023-10-31T06:12:02;95567.28;;;13.67;70.04
75290;BME280;63883;48.996;20.804;2023-10-31T06:14:27;95566.13;;;13.73;69.67
75290;BME280;63883;48.996;20.804;2023-10-31T06:16:53;95556.63;;;13.75;69.21
75290;BME280;63883;48.996;20.804;2023-10-31T06:19:19;95567.34;;;13.82;69.32
75290;BME280;63883;48.996;20.804;2023-10-31T06:21:46;95558.47;;;13.87;68.64
75290;BME280;63883;48.996;20.804;2023-10-31T06:24:11;95564.25;;;13.91;68.18
75290;BME280;63883;48.996;20.804;2023-10-31T06:26:37;95552.91;;;13.95;68.23
75290;BME280;63883;48.996;20.804;2023-10-31T06:29:04;95552.09;;;13.94;68.57
75290;BME280;63883;48.996;20.804;2023-10-31T06:31:29;95558.13;;;13.93;68.56
75290;BME280;63883;48.996;20.804;2023-10-31T06:33:55;95557.06;;;13.97;68.20
75290;BME280;63883;48.996;20.804;2023-10-31T06:36:20;95569.13;;;13.95;68.54
75290;BME280;63883;48.996;20.804;2023-10-31T06:38:46;95562.19;;;13.97;67.52
75290;BME280;63883;48.996;20.804;2023-10-31T06:41:12;95566.38;;;13.98;67.56
75290;BME280;63883;48.996;20.804;2023-10-31T06:43:37;95565.28;;;14.02;67.11
75290;BME280;63883;48.996;20.804;2023-10-31T06:46:03;95559.97;;;14.05;68.32
75290;BME280;63883;48.996;20.804;2023-10-31T06:48:30;95561.63;;;14.06;67.31
75290;BME280;63883;48.996;20.804;2023-10-31T06:50:56;95554.53;;;14.12;66.65
75290;BME280;63883;48.996;20.804;2023-10-31T06:53:21;95565.41;;;14.15;67.69
75290;BME280;63883;48.996;20.804;2023-10-31T06:55:47;95555.97;;;14.16;67.18
75290;BME280;63883;48.996;20.804;2023-10-31T06:58:13;95563.41;;;14.20;67.45
75290;BME280;63883;48.996;20.804;2023-10-31T07:00:39;95569.34;;;14.21;66.66
75290;BME280;63883;48.996;20.804;2023-10-31T07:03:05;95564.06;;;14.24;66.78
75290;BME280;63883;48.996;20.804;2023-10-31T07:05:32;95572.75;;;14.21;67.17
75290;BME280;63883;48.996;20.804;2023-10-31T07:07:58;95586.47;;;14.20;68.12
75290;BME280;63883;48.996;20.804;2023-10-31T07:10:24;95583.09;;;14.20;67.97
75290;BME280;63883;48.996;20.804;2023-10-31T07:12:50;95586.41;;;14.22;68.28
75290;BME280;63883;48.996;20.804;2023-10-31T07:15:15;95605.94;;;14.24;67.18
75290;BME280;63883;48.996;20.804;2023-10-31T07:17:41;95611.06;;;14.24;68.81
75290;BME280;63883;48.996;20.804;2023-10-31T07:20:07;95616.28;;;14.23;68.77
75290;BME280;63883;48.996;20.804;2023-10-31T07:22:33;95621.75;;;14.17;69.41
75290;BME280;63883;48.996;20.804;2023-10-31T07:25:00;95613.22;;;14.16;69.13
75290;BME280;63883;48.996;20.804;2023-10-31T07:27:28;95600.13;;;14.21;68.91
75290;BME280;63883;48.996;20.804;2023-10-31T07:29:54;95601.72;;;14.23;68.69
75290;BME280;63883;48.996;20.804;2023-10-31T07:32:19;95599.44;;;14.33;65.81
75290;BME280;63883;48.996;20.804;2023-10-31T07:34:45;95586.22;;;14.40;67.96
75290;BME280;63883;48.996;20.804;2023-10-31T07:37:11;95591.91;;;14.45;65.68
75290;BME280;63883;48.996;20.804;2023-10-31T07:39:36;95589.41;;;14.44;66.28
75290;BME280;63883;48.996;20.804;2023-10-31T07:42:02;95581.53;;;14.47;66.70
75290;BME280;63883;48.996;20.804;2023-10-31T07:44:28;95581.09;;;14.55;65.99
75290;BME280;63883;48.996;20.804;2023-10-31T07:46:53;95577.34;;;14.60;67.69
75290;BME280;63883;48.996;20.804;2023-10-31T07:49:19;95590.53;;;14.54;68.43
75290;BME280;63883;48.996;20.804;2023-10-31T07:51:45;95583.00;;;14.51;69.49
75290;BME280;63883;48.996;20.804;2023-10-31T07:54:14;95584.00;;;14.49;68.14
75290;BME280;63883;48.996;20.804;2023-10-31T07:56:39;95582.00;;;14.54;68.87
75290;BME280;63883;48.996;20.804;2023-10-31T07:59:06;95574.03;;;14.58;67.54
75290;BME280;63883;48.996;20.804;2023-10-31T08:01:36;95585.78;;;14.62;65.80
75290;BME280;63883;48.996;20.804;2023-10-31T08:04:02;95588.44;;;14.61;68.37
75290;BME280;63883;48.996;20.804;2023-10-31T08:06:27;95561.66;;;14.51;67.14
75290;BME280;63883;48.996;20.804;2023-10-31T08:08:53;95548.91;;;14.63;68.25
75290;BME280;63883;48.996;20.804;2023-10-31T08:11:19;95526.91;;;14.73;69.70
75290;BME280;63883;48.996;20.804;2023-10-31T08:13:44;95512.16;;;14.91;70.20
75290;BME280;63883;48.996;20.804;2023-10-31T08:16:10;95500.94;;;14.92;70.12
75290;BME280;63883;48.996;20.804;2023-10-31T08:18:36;95512.59;;;14.98;71.01
75290;BME280;63883;48.996;20.804;2023-10-31T08:21:03;95511.44;;;15.16;69.91
75290;BME280;63883;48.996;20.804;2023-10-31T08:23:29;95511.97;;;15.21;70.05
75290;BME280;63883;48.996;20.804;2023-10-31T08:25:55;95510.09;;;15.37;70.98
75290;BME280;63883;48.996;20.804;2023-10-31T08:28:21;95496.84;;;15.43;69.97
75290;BME280;63883;48.996;20.804;2023-10-31T08:30:47;95490.66;;;15.60;69.91
75290;BME280;63883;48.996;20.804;2023-10-31T08:33:13;95480.78;;;15.54;70.35
75290;BME280;63883;48.996;20.804;2023-10-31T08:35:39;95477.69;;;15.35;71.22
75290;BME280;63883;48.996;20.804;2023-10-31T08:38:05;95466.16;;;15.28;73.29
75290;BME280;63883;48.996;20.804;2023-10-31T08:40:30;95469.66;;;15.27;72.89
75290;BME280;63883;48.996;20.804;2023-10-31T08:42:56;95475.63;;;15.27;73.72
75290;BME280;63883;48.996;20.804;2023-10-31T08:45:22;95470.19;;;15.32;72.00
75290;BME280;63883;48.996;20.804;2023-10-31T08:47:48;95488.09;;;15.33;72.39
75290;BME280;63883;48.996;20.804;2023-10-31T08:50:13;95485.31;;;15.36;70.60
75290;BME280;63883;48.996;20.804;2023-10-31T08:52:39;95472.78;;;15.44;73.42
75290;BME280;63883;48.996;20.804;2023-10-31T08:55:05;95479.03;;;15.54;73.55
75290;BME280;63883;48.996;20.804;2023-10-31T08:57:32;95487.91;;;15.63;73.05
75290;BME280;63883;48.996;20.804;2023-10-31T08:59:59;95483.19;;;15.70;76.90
75290;BME280;63883;48.996;20.804;2023-10-31T09:02:25;95496.56;;;15.87;72.26
75290;BME280;63883;48.996;20.804;2023-10-31T09:04:52;95486.94;;;15.91;72.68
75290;BME280;63883;48.996;20.804;2023-10-31T09:07:18;95493.50;;;15.82;72.67
75290;BME280;63883;48.996;20.804;2023-10-31T09:09:43;95484.69;;;15.99;71.34
75290;BME280;63883;48.996;20.804;2023-10-31T09:12:09;95483.81;;;15.86;72.71
75290;BME280;63883;48.996;20.804;2023-10-31T09:14:35;95479.31;;;16.02;71.68
75290;BME280;63883;48.996;20.804;2023-10-31T09:17:02;95492.50;;;16.10;70.62
75290;BME280;63883;48.996;20.804;2023-10-31T09:19:28;95486.63;;;16.08;70.07
75290;BME280;63883;48.996;20.804;2023-10-31T09:21:55;95492.31;;;16.13;70.67
75290;BME280;63883;48.996;20.804;2023-10-31T09:24:20;95493.81;;;16.03;72.32
75290;BME280;63883;48.996;20.804;2023-10-31T09:26:46;95483.13;;;15.96;73.43
75290;BME280;63883;48.996;20.804;2023-10-31T09:29:12;95486.94;;;16.04;73.86
75290;BME280;63883;48.996;20.804;2023-10-31T09:31:38;95473.06;;;16.06;71.26
75290;BME280;63883;48.996;20.804;2023-10-31T09:34:03;95472.94;;;16.20;70.10
75290;BME280;63883;48.996;20.804;2023-10-31T09:36:32;95478.81;;;16.35;68.54
75290;BME280;63883;48.996;20.804;2023-10-31T09:38:59;95468.19;;;16.65;68.77
75290;BME280;63883;48.996;20.804;2023-10-31T09:41:25;95458.78;;;17.13;66.99
75290;BME280;63883;48.996;20.804;2023-10-31T09:43:51;95477.47;;;17.75;64.00
75290;BME280;63883;48.996;20.804;2023-10-31T09:46:16;95475.63;;;17.77;64.13
75290;BME280;63883;48.996;20.804;2023-10-31T09:48:43;95470.41;;;17.66;63.32
75290;BME280;63883;48.996;20.804;2023-10-31T09:51:09;95462.38;;;18.50;60.53
75290;BME280;63883;48.996;20.804;2023-10-31T09:53:37;95465.00;;;17.93;64.49
75290;BME280;63883;48.996;20.804;2023-10-31T09:56:04;95474.22;;;17.84;63.23
75290;BME280;63883;48.996;20.804;2023-10-31T09:58:31;95475.59;;;17.53;64.98
75290;BME280;63883;48.996;20.804;2023-10-31T10:00:57;95473.91;;;17.17;65.89
75290;BME280;63883;48.996;20.804;2023-10-31T10:03:23;95461.44;;;16.88;68.01
75290;BME280;63883;48.996;20.804;2023-10-31T10:05:49;95466.84;;;16.47;67.74
75290;BME280;63883;48.996;20.804;2023-10-31T10:08:15;95461.69;;;16.47;69.66
75290;BME280;63883;48.996;20.804;2023-10-31T10:10:42;95462.16;;;16.28;70.16
75290;BME280;63883;48.996;20.804;2023-10-31T10:13:07;95465.31;;;16.31;67.26
75290;BME280;63883;48.996;20.804;2023-10-31T10:15:51;95442.34;;;16.28;65.97
75290;BME280;63883;48.996;20.804;2023-10-31T10:18:31;95452.84;;;16.38;66.58
75290;BME280;63883;48.996;20.804;2023-10-31T10:20:59;95434.59;;;16.54;65.42
75290;BME280;63883;48.996;20.804;2023-10-31T10:23:26;95419.25;;;16.65;64.87
75290;BME280;63883;48.996;20.804;2023-10-31T10:25:53;95417.31;;;16.68;64.41
75290;BME280;63883;48.996;20.804;2023-10-31T10:28:19;95431.22;;;16.66;65.18
75290;BME280;63883;48.996;20.804;2023-10-31T10:30:46;95432.97;;;16.53;65.68
75290;BME280;63883;48.996;20.804;2023-10-31T10:33:15;95429.88;;;16.48;65.62
75290;BME280;63883;48.996;20.804;2023-10-31T10:35:42;95423.88;;;16.60;66.37
75290;BME280;63883;48.996;20.804;2023-10-31T10:38:18;95423.28;;;16.56;64.94
75290;BME280;63883;48.996;20.804;2023-10-31T10:40:46;95421.00;;;16.52;65.06
75290;BME280;63883;48.996;20.804;2023-10-31T10:43:20;95423.09;;;16.47;64.81
75290;BME280;63883;48.996;20.804;2023-10-31T10:45:53;95427.44;;;16.33;64.18
75290;BME280;63883;48.996;20.804;2023-10-31T10:48:21;95408.91;;;16.28;65.90
75290;BME280;63883;48.996;20.804;2023-10-31T10:50:52;95408.09;;;16.28;66.12
75290;BME280;63883;48.996;20.804;2023-10-31T10:53:24;95420.03;;;16.16;67.15
75290;BME280;63883;48.996;20.804;2023-10-31T10:56:09;95409.97;;;16.13;67.10
75290;BME280;63883;48.996;20.804;2023-10-31T10:58:41;95413.47;;;16.12;66.04
75290;BME280;63883;48.996;20.804;2023-10-31T11:01:10;95409.84;;;16.02;66.40
75290;BME280;63883;48.996;20.804;2023-10-31T11:03:36;95407.09;;;16.05;66.45
75290;BME280;63883;48.996;20.804;2023-10-31T11:06:03;95408.72;;;15.93;67.49
75290;BME280;63883;48.996;20.804;2023-10-31T11:08:29;95396.78;;;15.80;68.60
75290;BME280;63883;48.996;20.804;2023-10-31T11:10:56;95404.59;;;15.66;67.64
75290;BME280;63883;48.996;20.804;2023-10-31T11:13:22;95414.88;;;15.53;70.35
75290;BME280;63883;48.996;20.804;2023-10-31T11:15:54;95420.63;;;15.56;69.38
75290;BME280;63883;48.996;20.804;2023-10-31T11:18:21;95418.91;;;15.43;71.40
75290;BME280;63883;48.996;20.804;2023-10-31T11:20:47;95416.78;;;15.49;69.79
75290;BME280;63883;48.996;20.804;2023-10-31T11:23:14;95404.72;;;15.37;71.47
75290;BME280;63883;48.996;20.804;2023-10-31T11:25:44;95401.34;;;15.49;69.68
75290;BME280;63883;48.996;20.804;2023-10-31T11:28:16;95393.50;;;15.65;68.12
75290;BME280;63883;48.996;20.804;2023-10-31T11:30:43;95393.72;;;15.75;67.88
75290;BME280;63883;48.996;20.804;2023-10-31T11:33:16;95394.63;;;15.74;68.86
75290;BME280;63883;48.996;20.804;2023-10-31T11:35:49;95399.34;;;15.92;68.25
75290;BME280;63883;48.996;20.804;2023-10-31T11:38:15;95387.44;;;15.91;69.25
75290;BME280;63883;48.996;20.804;2023-10-31T11:43:09;95373.19;;;16.24;67.58
75290;BME280;63883;48.996;20.804;2023-10-31T11:45:41;95378.91;;;16.53;66.36
75290;BME280;63883;48.996;20.804;2023-10-31T11:48:07;95377.22;;;16.77;66.46
75290;BME280;63883;48.996;20.804;2023-10-31T11:50:36;95363.91;;;17.07;66.29
75290;BME280;63883;48.996;20.804;2023-10-31T11:55:35;95362.34;;;17.39;62.58
75290;BME280;63883;48.996;20.804;2023-10-31T11:58:23;95360.72;;;17.84;60.05
75290;BME280;63883;48.996;20.804;2023-10-31T12:00:53;95343.59;;;17.94;58.13
75290;BME280;63883;48.996;20.804;2023-10-31T12:03:25;95338.19;;;18.09;59.30
75290;BME280;63883;48.996;20.804;2023-10-31T12:05:58;95336.09;;;18.14;58.24
75290;BME280;63883;48.996;20.804;2023-10-31T12:08:37;95322.19;;;18.59;55.91
75290;BME280;63883;48.996;20.804;2023-10-31T12:11:11;95327.38;;;18.91;53.67
75290;BME280;63883;48.996;20.804;2023-10-31T12:13:52;95326.19;;;18.63;56.16
75290;BME280;63883;48.996;20.804;2023-10-31T12:16:19;95321.91;;;18.73;56.12
75290;BME280;63883;48.996;20.804;2023-10-31T12:18:44;95313.66;;;18.91;54.99
75290;BME280;63883;48.996;20.804;2023-10-31T12:21:10;95306.69;;;19.44;53.25
75290;BME280;63883;48.996;20.804;2023-10-31T12:23:39;95304.06;;;20.75;48.82
75290;BME280;63883;48.996;20.804;2023-10-31T12:26:05;95309.97;;;22.83;44.46
75290;BME280;63883;48.996;20.804;2023-10-31T12:28:31;95282.41;;;22.63;44.33
75290;BME280;63883;48.996;20.804;2023-10-31T12:30:56;95282.47;;;22.80;44.26
75290;BME280;63883;48.996;20.804;2023-10-31T12:33:26;95276.66;;;23.91;39.82
75290;BME280;63883;48.996;20.804;2023-10-31T12:35:56;95266.06;;;27.37;34.25
75290;BME280;63883;48.996;20.804;2023-10-31T12:38:22;95264.81;;;29.01;31.04
75290;BME280;63883;48.996;20.804;2023-10-31T12:40:49;95263.44;;;24.77;36.58
75290;BME280;63883;48.996;20.804;2023-10-31T12:43:16;95264.88;;;23.53;39.96
75290;BME280;63883;48.996;20.804;2023-10-31T12:45:42;95253.97;;;23.84;40.66
75290;BME280;63883;48.996;20.804;2023-10-31T12:48:09;95237.34;;;23.85;39.71
75290;BME280;63883;48.996;20.804;2023-10-31T12:50:37;95251.56;;;22.77;42.69